createdAt,value
2019-03-27T00:00:41.737Z,4.00
2019-03-27T00:01:41.711Z,4.00
2019-03-27T00:02:41.686Z,4.00
2019-03-27T00:03:41.664Z,4.00
2019-03-27T00:04:41.640Z,4.00
2019-03-27T00:05:41.623Z,4.00
2019-03-27T00:06:41.596Z,4.00
2019-03-27T00:07:41.573Z,4.00
2019-03-27T00:08:41.557Z,4.00
2019-03-27T00:09:41.526Z,4.00
2019-03-27T00:10:41.503Z,4.00
2019-03-27T00:11:41.490Z,4.00
2019-03-27T00:12:41.457Z,4.00
2019-03-27T00:13:41.431Z,4.00
2019-03-27T00:14:41.412Z,4.00
2019-03-27T00:15:41.393Z,4.00
2019-03-27T00:16:41.362Z,4.00
2019-03-27T00:17:41.349Z,4.00
2019-03-27T00:18:41.316Z,4.00
2019-03-27T00:19:41.297Z,4.00
2019-03-27T00:20:41.271Z,4.00
2019-03-27T00:21:41.247Z,4.00
2019-03-27T00:22:41.223Z,4.00
2019-03-27T00:23:41.209Z,4.00
2019-03-27T00:24:41.176Z,4.00
2019-03-27T00:25:41.157Z,4.00
2019-03-27T00:26:41.130Z,4.00
2019-03-27T00:27:41.109Z,4.00
2019-03-27T00:28:41.091Z,4.00
2019-03-27T00:29:41.074Z,4.00
2019-03-27T00:30:41.040Z,4.00
2019-03-27T00:31:41.013Z,4.00
2019-03-27T00:32:40.990Z,4.00
2019-03-27T00:33:40.968Z,4.00
2019-03-27T00:34:40.942Z,4.00
2019-03-27T00:35:40.936Z,4.00
2019-03-27T00:36:40.898Z,4.00
2019-03-27T00:37:40.878Z,4.00
2019-03-27T00:38:40.850Z,4.00
2019-03-27T00:39:40.837Z,4.00
2019-03-27T00:40:40.804Z,4.00
2019-03-27T00:41:40.781Z,4.00
2019-03-27T00:42:40.758Z,4.00
2019-03-27T00:43:40.733Z,4.00
2019-03-27T00:44:40.712Z,4.00
2019-03-27T00:45:40.906Z,4.00
2019-03-27T00:46:40.663Z,4.00
2019-03-27T00:47:40.641Z,4.00
2019-03-27T00:48:40.619Z,4.00
2019-03-27T00:49:40.599Z,4.00
2019-03-27T00:50:40.570Z,4.00
2019-03-27T00:51:40.545Z,4.00
2019-03-27T00:52:40.524Z,4.00
2019-03-27T00:53:40.503Z,4.00
2019-03-27T00:54:40.476Z,4.00
2019-03-27T00:55:40.453Z,4.00
2019-03-27T00:56:40.435Z,4.00
2019-03-27T00:57:40.406Z,4.00
2019-03-27T00:58:40.385Z,4.00
2019-03-27T00:59:40.358Z,4.00
2019-03-27T01:00:40.338Z,4.00
2019-03-27T01:01:40.319Z,4.00
2019-03-27T01:02:40.297Z,4.00
2019-03-27T01:03:40.267Z,4.00
2019-03-27T01:04:40.248Z,4.00
2019-03-27T01:05:40.219Z,4.00
2019-03-27T01:06:40.194Z,4.00
2019-03-27T01:07:40.177Z,4.00
2019-03-27T01:08:40.147Z,4.00
2019-03-27T01:09:40.125Z,4.00
2019-03-27T01:10:40.101Z,4.00
2019-03-27T01:11:40.088Z,4.00
2019-03-27T01:12:40.053Z,4.00
2019-03-27T01:13:40.030Z,4.00
2019-03-27T01:14:40.012Z,4.00
2019-03-27T01:15:40.426Z,4.00
2019-03-27T01:16:39.959Z,4.00
2019-03-27T01:17:39.937Z,4.00
2019-03-27T01:18:39.913Z,4.00
2019-03-27T01:19:39.889Z,4.00
2019-03-27T01:20:39.866Z,4.00
2019-03-27T01:21:39.843Z,4.00
2019-03-27T01:22:39.820Z,4.00
2019-03-27T01:23:39.801Z,4.00
2019-03-27T01:24:39.781Z,4.00
2019-03-27T01:25:39.749Z,4.00
2019-03-27T01:26:39.814Z,4.00
2019-03-27T01:27:39.700Z,4.00
2019-03-27T01:28:39.678Z,4.00
2019-03-27T01:29:39.662Z,4.00
2019-03-27T01:30:39.632Z,4.00
2019-03-27T01:31:39.604Z,4.00
2019-03-27T01:32:39.584Z,4.00
2019-03-27T01:33:39.559Z,4.00
2019-03-27T01:34:39.544Z,4.00
2019-03-27T01:35:39.511Z,4.00
2019-03-27T01:36:39.498Z,4.00
2019-03-27T01:37:39.477Z,4.00
2019-03-27T01:38:39.441Z,4.00
2019-03-27T01:39:39.416Z,4.00
2019-03-27T01:40:39.392Z,4.00
2019-03-27T01:41:39.369Z,4.00
2019-03-27T01:42:39.352Z,4.00
2019-03-27T01:43:39.323Z,4.00
2019-03-27T01:44:39.297Z,4.00
2019-03-27T01:45:52.112Z,4.00
2019-03-27T01:46:39.252Z,4.00
2019-03-27T01:47:39.269Z,4.00
2019-03-27T01:48:39.202Z,4.00
2019-03-27T01:49:39.179Z,4.00
2019-03-27T01:50:39.154Z,4.00
2019-03-27T01:51:39.131Z,4.00
2019-03-27T01:52:39.107Z,4.00
2019-03-27T01:53:39.084Z,4.00
2019-03-27T01:54:39.058Z,4.00
2019-03-27T01:55:39.040Z,4.00
2019-03-27T01:56:39.014Z,4.00
2019-03-27T01:57:38.995Z,4.00
2019-03-27T01:58:38.964Z,4.00
2019-03-27T01:59:38.940Z,4.00
2019-03-27T02:00:38.921Z,4.00
2019-03-27T02:01:38.942Z,4.00
2019-03-27T02:02:38.877Z,4.00
2019-03-27T02:03:38.844Z,4.00
2019-03-27T02:04:38.823Z,4.00
2019-03-27T02:05:38.797Z,4.00
2019-03-27T02:06:38.774Z,4.00
2019-03-27T02:07:38.751Z,4.00
2019-03-27T02:08:38.726Z,4.00
2019-03-27T02:09:38.701Z,4.00
2019-03-27T02:10:38.677Z,4.00
2019-03-27T02:11:38.653Z,4.00
2019-03-27T02:12:38.632Z,4.00
2019-03-27T02:13:38.606Z,4.00
2019-03-27T02:14:38.582Z,4.00
2019-03-27T02:15:38.556Z,4.00
2019-03-27T02:16:38.539Z,4.00
2019-03-27T02:17:38.529Z,4.00
2019-03-27T02:18:38.486Z,4.00
2019-03-27T02:19:38.461Z,4.00
2019-03-27T02:20:38.439Z,4.00
2019-03-27T02:21:38.419Z,4.00
2019-03-27T02:22:38.389Z,4.00
2019-03-27T02:23:38.367Z,4.00
2019-03-27T02:24:38.347Z,4.00
2019-03-27T02:25:38.319Z,4.00
2019-03-27T02:26:38.293Z,4.00
2019-03-27T02:27:38.278Z,4.00
2019-03-27T02:28:38.248Z,4.00
2019-03-27T02:29:38.220Z,4.00
2019-03-27T02:30:38.200Z,4.00
2019-03-27T02:31:38.176Z,4.00
2019-03-27T02:32:38.159Z,4.00
2019-03-27T02:33:38.126Z,4.00
2019-03-27T02:34:38.099Z,4.00
2019-03-27T02:35:38.076Z,4.00
2019-03-27T02:36:38.065Z,4.00
2019-03-27T02:37:38.027Z,4.00
2019-03-27T02:38:38.002Z,4.00
2019-03-27T02:39:37.994Z,4.00
2019-03-27T02:40:37.958Z,4.00
2019-03-27T02:41:37.932Z,4.00
2019-03-27T02:42:37.908Z,4.00
2019-03-27T02:43:37.890Z,4.00
2019-03-27T02:44:37.913Z,4.00
2019-03-27T02:45:37.834Z,4.00
2019-03-27T02:46:37.810Z,4.00
2019-03-27T02:47:37.884Z,4.00
2019-03-27T02:48:37.768Z,4.00
2019-03-27T02:49:37.739Z,4.00
2019-03-27T02:50:37.714Z,4.00
2019-03-27T02:51:37.692Z,4.00
2019-03-27T02:52:37.668Z,4.00
2019-03-27T02:53:37.641Z,4.00
2019-03-27T02:54:37.616Z,4.00
2019-03-27T02:55:37.591Z,4.00
2019-03-27T02:56:37.570Z,4.00
2019-03-27T02:57:37.546Z,4.00
2019-03-27T02:58:37.520Z,4.00
2019-03-27T02:59:37.495Z,4.00
2019-03-27T03:00:37.485Z,4.00
2019-03-27T03:01:37.449Z,4.00
2019-03-27T03:02:37.424Z,4.00
2019-03-27T03:03:37.401Z,4.00
2019-03-27T03:04:37.383Z,4.00
2019-03-27T03:05:37.348Z,4.00
2019-03-27T03:06:37.325Z,4.00
2019-03-27T03:07:37.300Z,4.00
2019-03-27T03:08:37.279Z,4.00
2019-03-27T03:09:37.253Z,4.00
2019-03-27T03:10:37.226Z,4.00
2019-03-27T03:11:37.201Z,4.00
2019-03-27T03:12:37.196Z,4.00
2019-03-27T03:13:37.156Z,4.00
2019-03-27T03:14:37.146Z,4.00
2019-03-27T03:15:37.113Z,4.00
2019-03-27T03:16:42.831Z,4.00
2019-03-27T03:17:37.064Z,4.00
2019-03-27T03:18:37.031Z,4.00
2019-03-27T03:19:37.007Z,4.00
2019-03-27T03:20:37.133Z,4.00
2019-03-27T03:21:36.961Z,4.00
2019-03-27T03:22:36.934Z,4.00
2019-03-27T03:23:36.910Z,4.00
2019-03-27T03:24:36.890Z,4.00
2019-03-27T03:25:36.866Z,4.00
2019-03-27T03:26:36.846Z,4.00
2019-03-27T03:27:36.814Z,4.00
2019-03-27T03:28:36.794Z,4.00
2019-03-27T03:29:36.770Z,4.00
2019-03-27T03:30:36.741Z,4.00
2019-03-27T03:31:36.721Z,4.00
2019-03-27T03:32:36.694Z,4.00
2019-03-27T03:33:36.669Z,4.00
2019-03-27T03:34:36.652Z,4.00
2019-03-27T03:35:36.620Z,4.00
2019-03-27T03:36:36.595Z,4.00
2019-03-27T03:37:36.571Z,4.00
2019-03-27T03:38:36.546Z,4.00
2019-03-27T03:39:36.521Z,4.00
2019-03-27T03:40:36.501Z,4.00
2019-03-27T03:41:36.474Z,4.00
2019-03-27T03:42:36.449Z,4.00
2019-03-27T03:43:36.426Z,4.00
2019-03-27T03:44:36.402Z,4.00
2019-03-27T03:45:36.387Z,4.00
2019-03-27T03:46:36.355Z,4.00
2019-03-27T03:47:36.331Z,4.00
2019-03-27T03:48:36.306Z,4.00
2019-03-27T03:49:36.282Z,4.00
2019-03-27T03:50:36.269Z,4.00
2019-03-27T03:51:36.236Z,4.00
2019-03-27T03:52:36.214Z,4.00
2019-03-27T03:53:36.211Z,4.00
2019-03-27T03:54:36.168Z,4.00
2019-03-27T03:55:36.144Z,4.00
2019-03-27T03:56:36.220Z,4.00
2019-03-27T03:57:36.093Z,4.00
2019-03-27T03:58:36.072Z,4.00
2019-03-27T03:59:36.040Z,4.00
2019-03-27T04:00:36.021Z,4.00
2019-03-27T04:01:35.993Z,4.00
2019-03-27T04:02:35.983Z,4.00
2019-03-27T04:03:36.125Z,4.00
2019-03-27T04:04:35.923Z,4.00
2019-03-27T04:05:35.909Z,4.00
2019-03-27T04:06:35.872Z,4.00
2019-03-27T04:07:35.849Z,4.00
2019-03-27T04:08:35.834Z,4.00
2019-03-27T04:09:35.803Z,4.00
2019-03-27T04:10:35.785Z,4.00
2019-03-27T04:11:35.756Z,4.00
2019-03-27T04:12:35.748Z,4.00
2019-03-27T04:13:35.706Z,4.00
2019-03-27T04:14:35.682Z,4.00
2019-03-27T04:15:35.658Z,4.00
2019-03-27T04:16:35.634Z,4.00
2019-03-27T04:17:35.611Z,4.00
2019-03-27T04:18:35.694Z,4.00
2019-03-27T04:19:35.564Z,4.00
2019-03-27T04:20:35.544Z,4.00
2019-03-27T04:21:35.515Z,4.00
2019-03-27T04:22:35.491Z,4.00
2019-03-27T04:23:35.480Z,4.00
2019-03-27T04:24:35.454Z,4.00
2019-03-27T04:26:06.365Z,4.00
2019-03-27T04:26:35.398Z,4.00
2019-03-27T04:27:35.371Z,4.00
2019-03-27T04:28:35.359Z,4.00
2019-03-27T04:29:35.325Z,4.00
2019-03-27T04:30:35.411Z,4.00
2019-03-27T04:31:35.283Z,4.00
2019-03-27T04:32:35.256Z,4.00
2019-03-27T04:33:35.231Z,4.00
2019-03-27T04:34:35.212Z,4.00
2019-03-27T04:35:35.183Z,4.00
2019-03-27T04:36:35.159Z,4.00
2019-03-27T04:37:35.143Z,4.00
2019-03-27T04:38:35.126Z,4.00
2019-03-27T04:39:35.094Z,4.00
2019-03-27T04:40:35.095Z,4.00
2019-03-27T04:41:35.059Z,4.00
2019-03-27T04:42:35.017Z,4.00
2019-03-27T04:43:34.997Z,4.00
2019-03-27T04:44:34.968Z,4.00
2019-03-27T04:45:34.942Z,4.00
2019-03-27T04:46:34.921Z,4.00
2019-03-27T04:47:34.896Z,4.00
2019-03-27T04:48:34.877Z,8.00
2019-03-27T04:49:34.846Z,4.00
2019-03-27T04:50:34.826Z,8.00
2019-03-27T04:51:34.799Z,8.00
2019-03-27T04:52:34.784Z,4.00
2019-03-27T04:53:34.752Z,8.00
2019-03-27T04:54:34.729Z,8.00
2019-03-27T04:55:34.704Z,12.00
2019-03-27T04:56:34.680Z,8.00
2019-03-27T04:57:34.656Z,12.00
2019-03-27T04:58:34.633Z,8.00
2019-03-27T04:59:34.613Z,12.00
2019-03-27T05:00:34.585Z,12.00
2019-03-27T05:01:34.562Z,16.00
2019-03-27T05:02:34.536Z,16.00
2019-03-27T05:03:34.512Z,16.00
2019-03-27T05:04:34.494Z,24.00
2019-03-27T05:05:34.464Z,24.00
2019-03-27T05:06:34.440Z,24.00
2019-03-27T05:07:34.416Z,32.00
2019-03-27T05:08:34.403Z,40.00
2019-03-27T05:09:34.386Z,44.00
2019-03-27T05:10:34.354Z,40.00
2019-03-27T05:11:34.321Z,48.00
2019-03-27T05:12:34.297Z,56.00
2019-03-27T05:13:34.273Z,68.00
2019-03-27T05:14:34.249Z,80.00
2019-03-27T05:15:34.238Z,96.00
2019-03-27T05:16:34.203Z,112.00
2019-03-27T05:17:45.267Z,124.00
2019-03-27T05:18:34.153Z,140.00
2019-03-27T05:19:34.138Z,160.00
2019-03-27T05:20:34.107Z,168.00
2019-03-27T05:21:34.083Z,180.00
2019-03-27T05:22:34.058Z,192.00
2019-03-27T05:23:34.038Z,220.00
2019-03-27T05:24:34.018Z,232.00
2019-03-27T05:25:33.995Z,260.00
2019-03-27T05:26:33.972Z,268.00
2019-03-27T05:27:36.256Z,268.00
2019-03-27T05:28:33.917Z,280.00
2019-03-27T05:29:33.926Z,280.00
2019-03-27T05:30:33.879Z,292.00
2019-03-27T05:31:33.847Z,312.00
2019-03-27T05:32:33.821Z,308.00
2019-03-27T05:33:33.804Z,324.00
2019-03-27T05:34:33.773Z,320.00
2019-03-27T05:35:33.759Z,332.00
2019-03-27T05:36:33.726Z,404.00
2019-03-27T05:37:33.703Z,500.00
2019-03-27T05:38:33.679Z,536.00
2019-03-27T05:39:33.665Z,568.00
2019-03-27T05:40:33.632Z,632.00
2019-03-27T05:41:33.609Z,736.00
2019-03-27T05:42:33.583Z,804.00
2019-03-27T05:43:33.569Z,788.00
2019-03-27T05:44:33.542Z,804.00
2019-03-27T05:45:33.519Z,828.00
2019-03-27T05:46:33.490Z,844.00
2019-03-27T05:47:33.471Z,820.00
2019-03-27T05:48:33.443Z,860.00
2019-03-27T05:49:33.421Z,884.00
2019-03-27T05:50:33.395Z,872.00
2019-03-27T05:51:33.374Z,868.00
2019-03-27T05:52:33.353Z,896.00
2019-03-27T05:53:33.330Z,972.00
2019-03-27T05:54:33.301Z,1076.00
2019-03-27T05:55:33.285Z,1096.00
2019-03-27T05:56:33.260Z,1128.00
2019-03-27T05:57:33.230Z,1124.00
2019-03-27T05:58:33.208Z,1144.00
2019-03-27T05:59:33.190Z,1136.00
2019-03-27T06:00:33.581Z,1192.00
2019-03-27T06:01:33.214Z,1180.00
2019-03-27T06:02:33.112Z,1224.00
2019-03-27T06:03:33.089Z,1340.00
2019-03-27T06:04:33.065Z,1416.00
2019-03-27T06:05:33.042Z,1472.00
2019-03-27T06:06:33.018Z,1432.00
2019-03-27T06:07:32.995Z,1460.00
2019-03-27T06:08:32.983Z,1520.00
2019-03-27T06:09:32.947Z,1784.00
2019-03-27T06:10:32.932Z,1880.00
2019-03-27T06:11:32.899Z,2120.00
2019-03-27T06:12:32.881Z,2480.00
2019-03-27T06:13:32.855Z,2732.00
2019-03-27T06:14:32.829Z,2552.00
2019-03-27T06:15:32.805Z,2632.00
2019-03-27T06:16:32.783Z,2724.00
2019-03-27T06:17:32.778Z,2812.00
2019-03-27T06:18:32.737Z,2428.00
2019-03-27T06:19:32.735Z,2316.00
2019-03-27T06:20:32.689Z,2652.00
2019-03-27T06:21:32.665Z,2772.00
2019-03-27T06:22:32.643Z,3016.00
2019-03-27T06:23:32.621Z,3072.00
2019-03-27T06:24:32.597Z,3376.00
2019-03-27T06:25:32.627Z,3380.00
2019-03-27T06:26:32.551Z,3388.00
2019-03-27T06:27:32.524Z,3316.00
2019-03-27T06:28:32.508Z,3780.00
2019-03-27T06:29:32.498Z,4488.00
2019-03-27T06:30:32.457Z,3960.00
2019-03-27T06:31:32.433Z,3532.00
2019-03-27T06:32:32.419Z,3264.00
2019-03-27T06:33:32.391Z,3384.00
2019-03-27T06:34:32.365Z,4024.00
2019-03-27T06:35:32.350Z,4444.00
2019-03-27T06:36:32.317Z,4244.00
2019-03-27T06:37:32.295Z,4220.00
2019-03-27T06:38:32.274Z,3988.00
2019-03-27T06:39:32.249Z,4072.00
2019-03-27T06:40:32.227Z,4076.00
2019-03-27T06:41:32.209Z,4044.00
2019-03-27T06:42:32.180Z,3348.00
2019-03-27T06:43:32.165Z,3576.00
2019-03-27T06:44:32.153Z,3096.00
2019-03-27T06:45:32.137Z,3076.00
2019-03-27T06:46:32.089Z,3112.00
2019-03-27T06:47:32.066Z,2720.00
2019-03-27T06:48:32.043Z,3088.00
2019-03-27T06:49:32.023Z,3224.00
2019-03-27T06:50:32.007Z,3512.00
2019-03-27T06:51:39.858Z,3692.00
2019-03-27T06:52:31.952Z,3392.00
2019-03-27T06:53:31.927Z,3404.00
2019-03-27T06:54:31.911Z,3320.00
2019-03-27T06:55:31.892Z,2712.00
2019-03-27T06:56:31.869Z,3232.00
2019-03-27T06:57:31.877Z,3528.00
2019-03-27T06:58:31.813Z,3220.00
2019-03-27T06:59:31.791Z,2964.00
2019-03-27T07:00:31.771Z,2828.00
2019-03-27T07:01:31.747Z,3068.00
2019-03-27T07:02:31.723Z,3032.00
2019-03-27T07:03:31.708Z,3328.00
2019-03-27T07:04:31.775Z,3640.00
2019-03-27T07:05:31.656Z,3616.00
2019-03-27T07:06:31.637Z,3436.00
2019-03-27T07:07:31.608Z,3568.00
2019-03-27T07:08:31.590Z,3604.00
2019-03-27T07:09:31.564Z,3592.00
2019-03-27T07:10:31.543Z,3804.00
2019-03-27T07:11:31.520Z,4656.00
2019-03-27T07:12:31.501Z,4768.00
2019-03-27T07:13:31.569Z,4552.00
2019-03-27T07:14:31.451Z,5680.00
2019-03-27T07:15:31.428Z,6344.00
2019-03-27T07:16:31.405Z,5784.00
2019-03-27T07:17:31.383Z,5244.00
2019-03-27T07:18:40.175Z,5776.00
2019-03-27T07:19:31.336Z,4692.00
2019-03-27T07:20:31.314Z,4932.00
2019-03-27T07:21:31.294Z,5916.00
2019-03-27T07:22:31.270Z,6960.00
2019-03-27T07:23:31.260Z,6316.00
2019-03-27T07:24:31.225Z,6688.00
2019-03-27T07:25:31.203Z,8596.00
2019-03-27T07:26:31.180Z,7748.00
2019-03-27T07:27:31.157Z,7136.00
2019-03-27T07:28:31.134Z,8136.00
2019-03-27T07:29:31.113Z,8496.00
2019-03-27T07:30:31.090Z,9348.00
2019-03-27T07:31:31.070Z,9176.00
2019-03-27T07:32:31.046Z,9512.00
2019-03-27T07:33:31.024Z,11020.00
2019-03-27T07:34:31.001Z,9880.00
2019-03-27T07:35:30.986Z,10380.00
2019-03-27T07:36:30.969Z,10216.00
2019-03-27T07:37:30.943Z,14352.00
2019-03-27T07:38:30.921Z,13724.00
2019-03-27T07:39:30.898Z,12524.00
2019-03-27T07:40:30.870Z,11944.00
2019-03-27T07:41:30.850Z,9364.00
2019-03-27T07:42:30.826Z,6748.00
2019-03-27T07:43:30.813Z,5904.00
2019-03-27T07:44:30.783Z,6084.00
2019-03-27T07:45:30.761Z,6616.00
2019-03-27T07:46:30.758Z,6784.00
2019-03-27T07:47:30.725Z,9528.00
2019-03-27T07:48:30.696Z,11004.00
2019-03-27T07:49:30.675Z,9220.00
2019-03-27T07:50:30.653Z,10276.00
2019-03-27T07:51:30.631Z,11400.00
2019-03-27T07:52:30.610Z,11476.00
2019-03-27T07:53:30.590Z,11992.00
2019-03-27T07:54:30.567Z,14476.00
2019-03-27T07:55:30.550Z,13804.00
2019-03-27T07:56:30.556Z,12156.00
2019-03-27T07:57:30.503Z,10716.00
2019-03-27T07:58:30.483Z,11968.00
2019-03-27T07:59:30.463Z,12176.00
2019-03-27T08:00:30.444Z,10272.00
2019-03-27T08:01:30.419Z,11184.00
2019-03-27T08:02:30.398Z,12840.00
2019-03-27T08:03:30.404Z,11040.00
2019-03-27T08:04:30.361Z,11764.00
2019-03-27T08:05:30.339Z,17184.00
2019-03-27T08:06:30.314Z,22304.00
2019-03-27T08:07:30.293Z,22048.00
2019-03-27T08:08:30.277Z,22240.00
2019-03-27T08:09:30.258Z,24832.00
2019-03-27T08:10:30.234Z,18688.00
2019-03-27T08:11:30.376Z,30112.00
2019-03-27T08:12:30.192Z,23712.00
2019-03-27T08:13:30.173Z,41792.00
2019-03-27T08:14:30.151Z,42784.00
2019-03-27T08:15:30.135Z,45312.00
2019-03-27T08:16:30.119Z,41728.00
2019-03-27T08:17:30.138Z,18528.00
2019-03-27T08:18:30.080Z,39296.00
2019-03-27T08:19:30.054Z,27456.00
2019-03-27T08:20:30.041Z,17984.00
2019-03-27T08:21:31.391Z,12884.00
2019-03-27T08:22:30.013Z,11284.00
2019-03-27T08:23:29.978Z,11412.00
2019-03-27T08:24:29.961Z,13784.00
2019-03-27T08:25:29.944Z,11984.00
2019-03-27T08:26:29.931Z,26528.00
2019-03-27T08:27:29.906Z,31552.00
2019-03-27T08:28:29.895Z,41376.00
2019-03-27T08:29:29.871Z,40640.00
2019-03-27T08:30:29.852Z,23808.00
2019-03-27T08:31:29.835Z,39040.00
2019-03-27T08:32:29.817Z,36160.00
2019-03-27T08:33:29.799Z,29504.00
2019-03-27T08:34:29.780Z,39584.00
2019-03-27T08:35:29.772Z,28992.00
2019-03-27T08:36:29.746Z,19232.00
2019-03-27T08:37:29.793Z,42304.00
2019-03-27T08:38:29.710Z,13320.00
2019-03-27T08:39:29.693Z,14432.00
2019-03-27T08:40:29.675Z,15744.00
2019-03-27T08:41:29.657Z,18400.00
2019-03-27T08:42:29.641Z,21312.00
2019-03-27T08:43:29.627Z,18208.00
2019-03-27T08:44:29.614Z,28544.00
2019-03-27T08:45:29.587Z,17008.00
2019-03-27T08:46:29.571Z,35488.00
2019-03-27T08:47:29.557Z,33408.00
2019-03-27T08:48:29.544Z,15216.00
2019-03-27T08:49:29.518Z,36320.00
2019-03-27T08:50:29.499Z,39776.00
2019-03-27T08:51:29.485Z,41376.00
2019-03-27T08:52:29.469Z,21632.00
2019-03-27T08:53:29.451Z,21440.00
2019-03-27T08:54:29.457Z,16024.00
2019-03-27T08:55:29.429Z,49536.00
2019-03-27T08:56:29.401Z,11968.00
2019-03-27T08:57:29.393Z,16596.00
2019-03-27T08:58:29.368Z,40480.00
2019-03-27T08:59:29.353Z,19232.00
2019-03-27T09:00:29.346Z,22272.00
2019-03-27T09:01:29.321Z,47936.00
2019-03-27T09:02:29.302Z,13812.00
2019-03-27T09:03:29.288Z,10660.00
2019-03-27T09:04:29.282Z,9028.00
2019-03-27T09:05:29.257Z,9644.00
2019-03-27T09:06:34.020Z,11136.00
2019-03-27T09:07:29.222Z,10368.00
2019-03-27T09:08:29.207Z,21952.00
2019-03-27T09:09:29.191Z,23552.00
2019-03-27T09:10:29.180Z,16212.00
2019-03-27T09:11:29.156Z,13012.00
2019-03-27T09:12:29.142Z,29952.00
2019-03-27T09:13:29.124Z,42592.00
2019-03-27T09:14:29.106Z,54784.00
2019-03-27T09:15:29.095Z,72480.00
2019-03-27T09:16:29.080Z,11892.00
2019-03-27T09:17:29.061Z,10200.00
2019-03-27T09:18:29.042Z,16028.00
2019-03-27T09:19:35.445Z,16660.00
2019-03-27T09:20:29.018Z,52160.00
2019-03-27T09:21:29.052Z,17920.00
2019-03-27T09:22:28.992Z,33728.00
2019-03-27T09:23:28.965Z,46944.00
2019-03-27T09:24:28.952Z,65312.00
2019-03-27T09:25:28.931Z,62592.00
2019-03-27T09:26:28.914Z,9356.00
2019-03-27T09:27:28.907Z,10204.00
2019-03-27T09:28:28.884Z,13544.00
2019-03-27T09:29:28.868Z,38176.00
2019-03-27T09:30:28.853Z,57184.00
2019-03-27T09:31:28.845Z,11224.00
2019-03-27T09:32:28.828Z,11828.00
2019-03-27T09:33:28.804Z,11660.00
2019-03-27T09:34:28.788Z,9640.00
2019-03-27T09:35:28.771Z,9572.00
2019-03-27T09:36:28.756Z,59456.00
2019-03-27T09:37:28.749Z,71264.00
2019-03-27T09:38:28.739Z,74784.00
2019-03-27T09:39:28.779Z,63072.00
2019-03-27T09:40:28.699Z,69152.00
2019-03-27T09:41:28.684Z,58272.00
2019-03-27T09:42:28.662Z,66016.00
2019-03-27T09:43:28.658Z,78080.00
2019-03-27T09:44:28.633Z,74720.00
2019-03-27T09:45:28.627Z,61312.00
2019-03-27T09:46:28.605Z,31424.00
2019-03-27T09:47:28.590Z,48160.00
2019-03-27T09:48:28.577Z,82240.00
2019-03-27T09:49:28.643Z,75168.00
2019-03-27T09:50:28.567Z,55200.00
2019-03-27T09:51:28.550Z,41888.00
2019-03-27T09:52:28.526Z,31008.00
2019-03-27T09:53:28.520Z,30496.00
2019-03-27T09:54:28.511Z,28672.00
2019-03-27T09:55:28.493Z,23744.00
2019-03-27T09:56:28.480Z,28672.00
2019-03-27T09:57:28.468Z,25888.00
2019-03-27T09:58:28.474Z,37056.00
2019-03-27T09:59:28.442Z,44384.00
2019-03-27T10:00:28.428Z,35616.00
2019-03-27T10:01:28.415Z,26624.00
2019-03-27T10:02:28.402Z,14028.00
2019-03-27T10:03:28.389Z,13288.00
2019-03-27T10:04:28.381Z,15332.00
2019-03-27T10:05:32.227Z,32064.00
2019-03-27T10:06:28.349Z,48064.00
2019-03-27T10:07:28.337Z,37952.00
2019-03-27T10:08:28.324Z,19712.00
2019-03-27T10:09:28.309Z,18176.00
2019-03-27T10:10:28.296Z,17152.00
2019-03-27T10:11:28.291Z,17024.00
2019-03-27T10:12:28.273Z,16768.00
2019-03-27T10:13:28.277Z,16444.00
2019-03-27T10:14:28.239Z,15904.00
2019-03-27T10:15:28.224Z,19168.00
2019-03-27T10:16:28.211Z,18016.00
2019-03-27T10:17:28.195Z,17440.00
2019-03-27T10:18:28.179Z,16200.00
2019-03-27T10:19:28.176Z,17248.00
2019-03-27T10:20:28.152Z,20480.00
2019-03-27T10:21:28.143Z,18048.00
2019-03-27T10:22:28.138Z,18720.00
2019-03-27T10:23:28.106Z,19968.00
2019-03-27T10:24:28.090Z,21792.00
2019-03-27T10:25:28.074Z,24640.00
2019-03-27T10:26:28.058Z,27232.00
2019-03-27T10:27:28.043Z,31072.00
2019-03-27T10:28:28.040Z,37696.00
2019-03-27T10:29:28.013Z,33696.00
2019-03-27T10:30:27.996Z,35168.00
2019-03-27T10:31:27.988Z,29632.00
2019-03-27T10:32:27.980Z,55136.00
2019-03-27T10:33:27.965Z,50048.00
2019-03-27T10:34:27.944Z,57824.00
2019-03-27T10:35:27.923Z,36704.00
2019-03-27T10:36:27.905Z,39328.00
2019-03-27T10:37:27.898Z,35296.00
2019-03-27T10:38:27.874Z,30848.00
2019-03-27T10:39:27.912Z,31616.00
2019-03-27T10:40:27.849Z,30560.00
2019-03-27T10:41:27.831Z,40992.00
2019-03-27T10:42:27.832Z,42592.00
2019-03-27T10:43:27.810Z,24960.00
2019-03-27T10:44:27.806Z,23744.00
2019-03-27T10:45:27.777Z,22432.00
2019-03-27T10:46:27.760Z,20544.00
2019-03-27T10:47:27.744Z,19200.00
2019-03-27T10:48:27.727Z,20672.00
2019-03-27T10:49:27.723Z,21888.00
2019-03-27T10:50:27.705Z,25216.00
2019-03-27T10:51:27.685Z,31712.00
2019-03-27T10:52:27.669Z,25824.00
2019-03-27T10:53:27.673Z,59584.00
2019-03-27T10:54:27.639Z,18560.00
2019-03-27T10:55:27.626Z,14920.00
2019-03-27T10:56:27.611Z,12820.00
2019-03-27T10:57:27.608Z,12508.00
2019-03-27T10:58:27.621Z,12764.00
2019-03-27T10:59:27.565Z,12888.00
2019-03-27T11:00:27.559Z,13220.00
2019-03-27T11:01:27.536Z,13672.00
2019-03-27T11:02:27.518Z,15208.00
2019-03-27T11:03:27.517Z,19392.00
2019-03-27T11:04:27.489Z,26208.00
2019-03-27T11:05:27.473Z,25984.00
2019-03-27T11:06:27.468Z,26432.00
2019-03-27T11:07:27.526Z,30432.00
2019-03-27T11:08:27.429Z,26336.00
2019-03-27T11:09:27.417Z,26432.00
2019-03-27T11:10:27.412Z,24416.00
2019-03-27T11:11:27.387Z,24384.00
2019-03-27T11:12:27.365Z,24992.00
2019-03-27T11:13:27.369Z,26016.00
2019-03-27T11:14:37.125Z,27488.00
2019-03-27T11:15:27.371Z,23616.00
2019-03-27T11:16:27.302Z,24000.00
2019-03-27T11:17:27.288Z,36864.00
2019-03-27T11:18:27.270Z,40256.00
2019-03-27T11:19:27.256Z,46464.00
2019-03-27T11:20:31.374Z,51104.00
2019-03-27T11:21:27.224Z,53696.00
2019-03-27T11:22:27.215Z,50464.00
2019-03-27T11:23:27.193Z,56704.00
2019-03-27T11:24:27.180Z,54304.00
2019-03-27T11:25:27.227Z,53312.00
2019-03-27T11:26:27.148Z,53248.00
2019-03-27T11:27:27.141Z,29088.00
2019-03-27T11:28:27.119Z,24448.00
2019-03-27T11:29:27.111Z,47872.00
2019-03-27T11:30:27.092Z,44768.00
2019-03-27T11:31:27.080Z,43744.00
2019-03-27T11:32:27.064Z,27200.00
2019-03-27T11:33:28.952Z,26528.00
2019-03-27T11:34:27.036Z,23904.00
2019-03-27T11:35:27.020Z,22336.00
2019-03-27T11:36:27.010Z,30240.00
2019-03-27T11:37:27.037Z,34432.00
2019-03-27T11:38:26.977Z,37216.00
2019-03-27T11:39:26.965Z,27392.00
2019-03-27T11:40:26.951Z,40224.00
2019-03-27T11:41:26.939Z,50592.00
2019-03-27T11:42:26.919Z,44224.00
2019-03-27T11:43:26.908Z,48032.00
2019-03-27T11:44:26.911Z,33344.00
2019-03-27T11:45:26.930Z,29856.00
2019-03-27T11:46:26.879Z,26176.00
2019-03-27T11:47:26.851Z,21056.00
2019-03-27T11:48:26.836Z,17728.00
2019-03-27T11:49:26.821Z,13600.00
2019-03-27T11:50:26.807Z,10728.00
2019-03-27T11:51:26.793Z,10356.00
2019-03-27T11:52:29.535Z,10480.00
2019-03-27T11:53:26.765Z,11336.00
2019-03-27T11:54:26.759Z,13164.00
2019-03-27T11:55:26.741Z,36992.00
2019-03-27T11:56:26.738Z,27680.00
2019-03-27T11:58:30.761Z,23680.00
2019-03-27T11:59:30.747Z,42080.00
2019-03-27T12:00:30.784Z,39040.00
2019-03-27T12:01:40.589Z,53760.00
2019-03-27T12:02:30.701Z,59392.00
2019-03-27T12:03:30.694Z,51616.00
2019-03-27T12:04:30.735Z,19072.00
2019-03-27T12:05:30.659Z,23872.00
2019-03-27T12:06:30.639Z,19328.00
2019-03-27T12:07:30.628Z,17728.00
2019-03-27T12:08:30.618Z,17952.00
2019-03-27T12:09:30.599Z,18400.00
2019-03-27T12:10:30.585Z,17664.00
2019-03-27T12:11:30.574Z,15384.00
2019-03-27T12:12:30.551Z,13640.00
2019-03-27T12:13:30.536Z,12516.00
2019-03-27T12:14:30.521Z,11476.00
2019-03-27T12:15:30.513Z,14484.00
2019-03-27T12:16:30.493Z,16092.00
2019-03-27T12:17:30.475Z,17024.00
2019-03-27T12:18:32.073Z,16316.00
2019-03-27T12:19:30.445Z,15704.00
2019-03-27T12:20:30.455Z,14428.00
2019-03-27T12:21:30.415Z,13256.00
2019-03-27T12:22:30.411Z,12020.00
2019-03-27T12:23:30.400Z,11200.00
2019-03-27T12:24:30.368Z,11788.00
2019-03-27T12:25:30.355Z,12296.00
2019-03-27T12:26:30.337Z,12116.00
2019-03-27T12:27:30.323Z,12728.00